Time;durP1;ratioP1;P1;durP2;ratioP2;P2;SDS_P1;SDS_P2;PMS_P1;PMS_P2;Temp;Humidity;BMP_temperature;BMP_pressure;BME280_temperature;BME280_humidity;BME280_pressure;Samples;Min_cycle;Max_cycle;Signal;HPM_P1;HPM_P2
2024/01/01 00:01:59;;;;;;;0.00;0.00;;;;;;;5.58;100.00;98544.59;4983543;28;20034;-76
2024/01/01 00:04:32;;;;;;;0.10;0.10;;;;;;;5.48;100.00;98533.81;4971166;28;20034;-74
2024/01/01 00:06:57;;;;;;;0.00;0.00;;;;;;;5.65;100.00;98557.84;4995256;28;20034;-74
2024/01/01 00:09:23;;;;;;;0.10;0.10;;;;;;;5.59;100.00;98565.19;4998833;28;20018;-76
2024/01/01 00:11:53;;;;;;;0.00;0.00;;;;;;;5.49;100.00;98549.78;5008406;28;20092;-74
2024/01/01 00:14:21;;;;;;;0.00;0.00;;;;;;;5.57;100.00;98570.09;4976555;28;20026;-75
2024/01/01 00:16:46;;;;;;;0.10;0.10;;;;;;;5.53;100.00;98558.16;4989981;28;20026;-77
2024/01/01 00:19:12;;;;;;;0.00;0.00;;;;;;;5.58;100.00;98569.00;4954846;28;20026;-74
2024/01/01 00:21:40;;;;;;;0.00;0.00;;;;;;;5.38;100.00;98556.34;4949482;28;20159;-76
2024/01/01 00:24:06;;;;;;;0.00;0.00;;;;;;;5.55;100.00;98580.41;4991529;28;20119;-76
2024/01/01 00:26:31;;;;;;;0.00;0.00;;;;;;;5.34;100.00;98572.34;4979821;28;20139;-78
2024/01/01 00:28:57;;;;;;;0.10;0.10;;;;;;;5.37;100.00;98595.38;4970036;28;20085;-77
2024/01/01 00:31:22;;;;;;;0.00;0.00;;;;;;;5.30;100.00;98601.09;4969619;28;20121;-75
2024/01/01 00:33:47;;;;;;;0.00;0.00;;;;;;;5.13;100.00;98568.09;4984482;28;20029;-75
2024/01/01 00:36:13;;;;;;;0.00;0.00;;;;;;;5.28;100.00;98597.84;4962355;28;20058;-76
2024/01/01 00:38:41;;;;;;;0.00;0.00;;;;;;;5.17;100.00;98567.25;4986116;28;20038;-75
2024/01/01 00:41:13;;;;;;;0.00;0.00;;;;;;;5.41;100.00;98593.75;4998789;28;20468;-75
2024/01/01 00:43:39;;;;;;;0.00;0.00;;;;;;;5.50;100.00;98596.69;4990176;28;20026;-80
2024/01/01 00:46:04;;;;;;;0.00;0.00;;;;;;;5.54;100.00;98620.25;4969321;28;20033;-78
2024/01/01 00:48:30;;;;;;;0.00;0.00;;;;;;;5.54;100.00;98605.91;4968861;28;20375;-78
2024/01/01 00:50:55;;;;;;;0.00;0.00;;;;;;;5.54;100.00;98614.84;4976244;28;20536;-80
2024/01/01 00:53:21;;;;;;;0.00;0.00;;;;;;;5.76;100.00;98638.06;4970307;28;20026;-79
2024/01/01 00:55:51;;;;;;;0.00;0.00;;;;;;;5.68;100.00;98628.63;4973001;28;20435;-78
2024/01/01 00:58:17;;;;;;;0.10;0.10;;;;;;;5.61;100.00;98614.53;4979442;28;20030;-81
2024/01/01 01:00:42;;;;;;;0.00;0.00;;;;;;;5.64;100.00;98630.25;4965690;28;20125;-80
2024/01/01 01:03:11;;;;;;;0.00;0.00;;;;;;;5.58;100.00;98631.38;4988389;28;20091;-84
2024/01/01 01:06:01;;;;;;;;;;;;;;;;;;;;;
2024/01/01 01:08:44;;;;;;;0.10;0.10;;;;;;;5.28;100.00;98619.53;4988207;28;20109;-82
2024/01/01 01:11:35;;;;;;;;;;;;;;;;;;;;;
2024/01/01 01:17:27;;;;;;;0.00;0.00;;;;;;;5.50;100.00;98656.34;4882833;29;20039;-80
2024/01/01 01:19:55;;;;;;;0.00;0.00;;;;;;;5.38;100.00;98648.50;4864497;29;20036;-78
2024/01/01 01:22:21;;;;;;;0.00;0.00;;;;;;;5.26;100.00;98640.69;4883267;29;20062;-79
2024/01/01 01:24:50;;;;;;;0.00;0.00;;;;;;;5.45;100.00;98656.34;4901710;29;20036;-81
2024/01/01 01:27:15;;;;;;;0.00;0.00;;;;;;;5.38;100.00;98640.38;4902079;29;20025;-81
2024/01/01 01:30:02;;;;;;;0.00;0.00;;;;;;;5.40;100.00;98640.91;4901245;29;20047;-82
2024/01/01 01:33:06;;;;;;;0.00;0.00;;;;;;;5.32;100.00;98626.03;4923751;28;20044;-85
2024/01/01 01:35:41;;;;;;;0.00;0.00;;;;;;;5.32;100.00;98650.41;4834450;29;20021;-81
2024/01/01 01:38:27;;;;;;;0.00;0.00;;;;;;;5.50;100.00;98683.44;4830360;29;20813;-83
2024/01/01 01:41:05;;;;;;;;;;;;;;;;;;;;;
2024/01/01 01:43:32;;;;;;;0.00;0.00;;;;;;;5.11;100.00;98686.75;4846921;29;20148;-82
2024/01/01 01:46:07;;;;;;;0.00;0.00;;;;;;;4.91;100.00;98650.50;4907353;28;20054;-81
2024/01/01 01:48:33;;;;;;;0.00;0.00;;;;;;;4.96;100.00;98672.13;4985392;28;20031;-84
2024/01/01 01:50:59;;;;;;;0.00;0.00;;;;;;;4.99;100.00;98673.50;4968612;28;20117;-83
2024/01/01 01:53:45;;;;;;;0.10;0.10;;;;;;;4.95;100.00;98667.81;4974531;28;20030;-81
2024/01/01 01:56:17;;;;;;;0.10;0.10;;;;;;;5.36;100.00;98715.72;4971528;28;20150;-83
2024/01/01 01:58:46;;;;;;;0.10;0.10;;;;;;;5.23;100.00;98701.66;4965346;28;20088;-82
2024/01/01 02:01:12;;;;;;;0.00;0.00;;;;;;;5.29;100.00;98709.78;4952669;28;20021;-82
2024/01/01 02:03:49;;;;;;;0.00;0.00;;;;;;;5.26;100.00;98678.63;4969965;28;20449;-83
2024/01/01 02:06:15;;;;;;;0.10;0.10;;;;;;;5.34;100.00;98697.03;4978427;28;20026;-82
2024/01/01 02:09:12;;;;;;;0.00;0.00;;;;;;;5.64;100.00;98760.44;4967456;28;20050;-83
2024/01/01 02:11:37;;;;;;;0.00;0.00;;;;;;;5.50;100.00;98734.97;4981175;28;20022;-83
2024/01/01 02:14:18;;;;;;;0.10;0.10;;;;;;;5.60;100.00;98781.03;4984037;28;20019;-82
2024/01/01 02:17:04;;;;;;;0.00;0.00;;;;;;;5.34;100.00;98745.00;4990298;28;20124;-81
2024/01/01 02:19:30;;;;;;;0.10;0.10;;;;;;;5.40;100.00;98760.19;4992314;28;20029;-82
2024/01/01 02:21:58;;;;;;;0.00;0.00;;;;;;;5.45;100.00;98783.75;4992872;28;20080;-82
2024/01/01 02:24:24;;;;;;;0.00;0.00;;;;;;;5.42;100.00;98768.88;4986184;28;20151;-84
2024/01/01 02:27:36;;;;;;;0.10;0.10;;;;;;;5.32;100.00;98775.09;4983765;28;20025;-83
2024/01/01 02:30:44;;;;;;;0.00;0.00;;;;;;;5.20;100.00;98769.16;4982451;28;20031;-83
2024/01/01 02:33:48;;;;;;;0.00;0.00;;;;;;;5.19;100.00;98765.63;4974652;28;20038;-81
2024/01/01 02:36:27;;;;;;;0.00;0.00;;;;;;;5.33;100.00;98798.41;4979234;28;20091;-83
2024/01/01 02:38:56;;;;;;;0.00;0.00;;;;;;;5.19;100.00;98781.06;4985522;28;20006;-81
2024/01/01 02:41:35;;;;;;;0.00;0.00;;;;;;;4.96;100.00;98753.41;4980026;28;20409;-83
2024/01/01 02:44:11;;;;;;;0.00;0.00;;;;;;;4.98;100.00;98786.47;4980953;28;20107;-83
2024/01/01 02:46:36;;;;;;;0.00;0.00;;;;;;;4.82;100.00;98782.09;4984569;28;20066;-82
2024/01/01 02:49:31;;;;;;;0.00;0.00;;;;;;;4.70;100.00;98769.63;4996709;28;20101;-83
2024/01/01 02:52:09;;;;;;;;;;;;;;;5.07;100.00;98819.28;4991959;28;20112;-81
2024/01/01 02:54:34;;;;;;;0.05;0.05;;;;;;;5.10;100.00;98826.84;4986699;28;20009;-80
2024/01/01 02:57:00;;;;;;;0.00;0.00;;;;;;;4.86;100.00;98794.03;4992119;28;20022;-81
2024/01/01 02:59:38;;;;;;;;;;;;;;;;;;;;;
2024/01/01 03:02:04;;;;;;;0.10;0.10;;;;;;;5.01;100.00;98823.88;5007229;28;20136;-81
2024/01/01 03:04:35;;;;;;;0.00;0.00;;;;;;;5.00;100.00;98833.06;4986181;28;20473;-80
2024/01/01 03:07:13;;;;;;;0.00;0.00;;;;;;;4.72;100.00;98799.16;4976199;28;20037;-82
2024/01/01 03:10:01;;;;;;;;;;;;;;;;;;;;;
2024/01/01 03:12:29;;;;;;;0.00;0.00;;;;;;;4.86;100.00;98850.91;4972612;28;20079;-82
2024/01/01 03:15:13;;;;;;;0.00;0.00;;;;;;;4.64;100.00;98814.00;5007632;28;20036;-81
2024/01/01 03:18:12;;;;;;;0.00;0.00;;;;;;;4.84;100.00;98832.22;4990070;28;20026;-84
2024/01/01 03:24:13;;;;;;;;;;;;;;;;;;;;;
2024/01/01 03:26:57;;;;;;;;;;;;;;;;;;;;;
2024/01/01 03:29:57;;;;;;;0.00;0.00;;;;;;;4.90;100.00;98854.72;4919838;29;20132;-83
2024/01/01 03:32:46;;;;;;;;;;;;;;;;;;;;;
2024/01/01 03:35:21;;;;;;;;;;;;;;;;;;;;;
2024/01/01 03:37:56;;;;;;;0.00;0.00;;;;;;;4.99;100.00;98906.47;4986705;28;20107;-80
2024/01/01 03:40:32;;;;;;;0.10;0.10;;;;;;;4.68;100.00;98885.50;4987600;28;20115;-81
2024/01/01 03:43:05;;;;;;;0.00;0.00;;;;;;;4.78;100.00;98886.66;4985910;28;20371;-81
2024/01/01 03:45:43;;;;;;;;;;;;;;;;;;;;;
2024/01/01 03:48:12;;;;;;;0.00;0.00;;;;;;;4.85;100.00;98879.91;4981264;28;20164;-82
2024/01/01 03:51:13;;;;;;;0.00;0.00;;;;;;;5.12;100.00;98903.25;4987559;28;20440;-82
2024/01/01 03:54:08;;;;;;;0.10;0.10;;;;;;;5.31;100.00;98919.84;4987940;28;20033;-81
2024/01/01 04:07:02;;;;;;;0.10;0.10;;;;;;;5.23;100.00;98928.50;4911195;29;20064;-82
2024/01/01 04:09:30;;;;;;;0.00;0.00;;;;;;;5.07;100.00;98909.50;4904093;29;20039;-84
2024/01/01 04:11:55;;;;;;;0.00;0.00;;;;;;;4.98;100.00;98910.25;4938887;28;20046;-83
2024/01/01 04:14:35;;;;;;;;;;;;;;;;;;;;;
2024/01/01 04:17:36;;;;;;;0.00;0.00;;;;;;;4.92;100.00;98939.25;4959019;28;20145;-83
2024/01/01 04:20:25;;;;;;;;;;;;;;;;;;;;;
2024/01/01 04:22:53;;;;;;;0.00;0.00;;;;;;;4.49;100.00;98917.66;5008674;28;20117;-83
2024/01/01 04:25:28;;;;;;;0.00;0.00;;;;;;;4.45;100.00;98918.44;4981171;28;20523;-84
2024/01/01 04:27:53;;;;;;;0.00;0.00;;;;;;;4.31;100.00;98908.09;4979637;28;20097;-82
2024/01/01 04:30:44;;;;;;;0.00;0.00;;;;;;;4.70;100.00;98953.78;4995424;28;20049;-83
2024/01/01 04:33:19;;;;;;;0.10;0.10;;;;;;;4.56;100.00;98914.72;4976982;28;20058;-81
2024/01/01 04:35:47;;;;;;;0.00;0.00;;;;;;;4.68;100.00;98923.44;4989009;28;20032;-81
2024/01/01 04:38:12;;;;;;;0.10;0.10;;;;;;;4.58;100.00;98909.03;4977659;28;20033;-80
2024/01/01 04:40:49;;;;;;;0.00;0.00;;;;;;;4.53;100.00;98899.00;4980295;28;20059;-81
2024/01/01 04:43:14;;;;;;;0.00;0.00;;;;;;;4.70;100.00;98932.13;4997591;28;20030;-81
2024/01/01 04:45:51;;;;;;;0.00;0.00;;;;;;;4.56;100.00;98914.72;4973844;28;20082;-82
2024/01/01 04:48:21;;;;;;;0.00;0.00;;;;;;;4.57;100.00;98929.88;4989177;28;20007;-82
2024/01/01 04:51:02;;;;;;;0.00;0.00;;;;;;;4.53;100.00;98926.88;4991328;28;20143;-83
2024/01/01 04:53:33;;;;;;;0.00;0.00;;;;;;;4.61;100.00;98941.81;5006429;28;20043;-82
2024/01/01 04:56:08;;;;;;;;;;;;;;;;;;;;;
2024/01/01 04:58:34;;;;;;;0.00;0.00;;;;;;;4.69;100.00;98962.16;5005828;28;20062;-81
2024/01/01 05:01:05;;;;;;;0.00;0.00;;;;;;;4.57;100.00;98956.13;4985849;28;20046;-81
2024/01/01 05:03:49;;;;;;;0.00;0.00;;;;;;;4.31;100.00;98924.31;4991738;28;20022;-80
2024/01/01 05:06:19;;;;;;;0.00;0.00;;;;;;;4.62;100.00;98973.22;4981907;28;20026;-81
2024/01/01 05:08:45;;;;;;;0.10;0.10;;;;;;;4.48;100.00;98947.69;4983607;28;20040;-81
2024/01/01 05:11:10;;;;;;;0.08;0.08;;;;;;;4.44;100.00;98944.72;4967642;28;20026;-79
2024/01/01 05:14:02;;;;;;;;;;;;;;;;;;;;;
2024/01/01 05:16:53;;;;;;;0.00;0.00;;;;;;;4.68;100.00;98985.72;5002368;28;20101;-84
2024/01/01 05:19:37;;;;;;;0.00;0.00;;;;;;;4.63;100.00;98979.44;4998462;28;20055;-84
2024/01/01 05:25:51;;;;;;;0.00;0.00;;;;;;;4.44;100.00;98962.81;4831843;29;20038;-81
2024/01/01 05:28:19;;;;;;;0.00;0.00;;;;;;;4.45;100.00;98967.16;4871510;28;20084;-82
2024/01/01 05:30:45;;;;;;;0.00;0.00;;;;;;;4.46;100.00;98974.22;4983368;28;20049;-82
2024/01/01 05:33:14;;;;;;;0.00;0.00;;;;;;;4.38;100.00;98956.59;4995981;28;20006;-83
2024/01/01 05:35:59;;;;;;;0.00;0.00;;;;;;;4.60;100.00;98988.94;4983458;28;20046;-82
2024/01/01 05:38:58;;;;;;;0.00;0.00;;;;;;;4.77;100.00;99007.69;4964581;28;20125;-81
2024/01/01 05:41:35;;;;;;;0.10;0.10;;;;;;;4.47;100.00;98975.84;4981383;28;20030;-82
2024/01/01 05:44:13;;;;;;;0.00;0.00;;;;;;;4.70;100.00;99013.34;4976292;28;20099;-83
2024/01/01 05:46:51;;;;;;;0.10;0.10;;;;;;;4.46;100.00;98982.34;4991262;28;20457;-83
2024/01/01 05:49:20;;;;;;;0.00;0.00;;;;;;;4.52;100.00;98997.53;4995097;28;20027;-83
2024/01/01 05:51:53;;;;;;;0.00;0.00;;;;;;;4.61;100.00;98993.25;4992117;28;20053;-81
2024/01/01 05:54:21;;;;;;;0.00;0.00;;;;;;;4.66;100.00;98992.47;4987013;28;20076;-83
2024/01/01 05:56:58;;;;;;;0.00;0.00;;;;;;;4.49;100.00;98979.91;4991650;28;20025;-79
2024/01/01 05:59:29;;;;;;;0.00;0.00;;;;;;;4.56;100.00;98998.66;4985520;28;20113;-81
2024/01/01 06:01:55;;;;;;;0.10;0.10;;;;;;;4.54;100.00;98998.91;4984973;28;20018;-82
2024/01/01 06:04:44;;;;;;;0.00;0.00;;;;;;;4.42;100.00;98995.56;4985417;28;20038;-83
2024/01/01 06:07:32;;;;;;;0.00;0.00;;;;;;;4.57;100.00;99024.66;4991562;28;20037;-82
2024/01/01 06:10:14;;;;;;;0.10;0.10;;;;;;;4.50;100.00;99016.75;4989493;28;20010;-82
2024/01/01 06:12:43;;;;;;;0.10;0.10;;;;;;;4.58;100.00;99030.88;4987944;28;20053;-84
2024/01/01 06:15:43;;;;;;;0.00;0.00;;;;;;;4.36;100.00;99008.25;4988842;28;20007;-80
2024/01/01 06:18:15;;;;;;;0.00;0.00;;;;;;;4.60;100.00;99053.06;5004188;28;20042;-81
2024/01/01 06:20:46;;;;;;;0.10;0.10;;;;;;;4.55;100.00;99043.84;4993624;28;20105;-81
2024/01/01 06:23:39;;;;;;;;;;;;;;;;;;;;;
2024/01/01 06:26:05;;;;;;;0.00;0.00;;;;;;;4.77;100.00;99051.03;5005231;28;20598;-81
2024/01/01 06:28:48;;;;;;;0.10;0.10;;;;;;;4.70;100.00;99034.19;4989286;28;20050;-79
2024/01/01 06:31:45;;;;;;;0.00;0.00;;;;;;;4.66;100.00;99039.31;4987349;28;20019;-80
2024/01/01 06:34:20;;;;;;;0.00;0.00;;;;;;;4.66;100.00;99050.16;4987535;28;20041;-82
2024/01/01 06:36:54;;;;;;;0.00;0.00;;;;;;;4.55;100.00;99049.25;5000520;28;20038;-84
2024/01/01 06:39:20;;;;;;;0.00;0.00;;;;;;;4.46;100.00;99050.81;4989667;28;20137;-83
2024/01/01 06:41:53;;;;;;;0.00;0.00;;;;;;;4.26;100.00;99032.53;4996391;28;20057;-83
2024/01/01 06:44:30;;;;;;;;;;;;;;;;;;;;;
2024/01/01 06:47:16;;;;;;;0.00;0.00;;;;;;;4.58;100.00;99093.16;5010962;28;20129;-83
2024/01/01 06:49:51;;;;;;;0.00;0.00;;;;;;;4.29;100.00;99052.84;4995067;28;20153;-83
2024/01/01 06:52:20;;;;;;;0.00;0.00;;;;;;;4.53;100.00;99099.34;4990488;28;20027;-81
2024/01/01 06:54:58;;;;;;;;;;;;;;;;;;;;;
2024/01/01 06:57:24;;;;;;;0.00;0.00;;;;;;;4.48;100.00;99102.00;5004937;28;20100;-83
2024/01/01 07:00:49;;;;;;;0.10;0.10;;;;;;;4.20;100.00;99074.16;4969894;28;20064;-81
2024/01/01 07:03:18;;;;;;;0.00;0.00;;;;;;;4.28;100.00;99092.63;4990923;28;20692;-81
2024/01/01 07:05:46;;;;;;;0.00;0.00;;;;;;;4.12;100.00;99072.75;4979538;28;20123;-81
2024/01/01 07:08:31;;;;;;;0.00;0.00;;;;;;;4.10;100.00;99063.25;4990439;28;20168;-82
2024/01/01 07:11:04;;;;;;;0.00;0.00;;;;;;;4.30;100.00;99095.88;4986460;28;20038;-81
2024/01/01 07:13:35;;;;;;;0.00;0.00;;;;;;;4.41;100.00;99117.63;5000930;28;20046;-85
2024/01/01 07:16:19;;;;;;;0.00;0.00;;;;;;;4.24;100.00;99101.53;4983083;28;20490;-84
2024/01/01 07:19:00;;;;;;;;;;;;;;;;;;;;;
2024/01/01 07:25:26;;;;;;;0.00;0.00;;;;;;;4.35;100.00;99144.66;5008568;28;20053;-85
2024/01/01 07:28:26;;;;;;;;;;;;;;;;;;;;;
2024/01/01 07:31:16;;;;;;;;;;;;;;;;;;;;;
2024/01/01 07:33:47;;;;;;;0.00;0.00;;;;;;;4.42;100.00;99152.56;5007410;28;20097;-85
2024/01/01 07:36:18;;;;;;;0.00;0.00;;;;;;;4.34;100.00;99139.50;4981298;28;20058;-83
2024/01/01 07:38:44;;;;;;;0.10;0.10;;;;;;;4.47;100.00;99162.66;4977440;28;20093;-81
2024/01/01 07:41:09;;;;;;;0.00;0.00;;;;;;;4.30;100.00;99144.59;4994462;28;20026;-78
2024/01/01 07:43:35;;;;;;;0.00;0.00;;;;;;;4.41;100.00;99163.66;5008734;28;20026;-79
2024/01/01 07:46:31;;;;;;;0.00;0.00;;;;;;;4.24;100.00;99156.47;4983872;28;20468;-82
2024/01/01 07:49:53;;;;;;;0.00;0.00;;;;;;;4.42;100.00;99195.88;4986896;28;20045;-86
2024/01/01 07:53:16;;;;;;;0.10;0.10;;;;;;;4.07;100.00;99155.75;4963200;28;20114;-84
2024/01/01 07:56:14;;;;;;;0.00;0.00;;;;;;;3.96;100.00;99150.22;4965515;28;20042;-85
2024/01/01 07:59:22;;;;;;;0.10;0.10;;;;;;;3.99;100.00;99159.72;4961337;28;20106;-84
2024/01/01 08:02:01;;;;;;;0.00;0.00;;;;;;;4.16;100.00;99183.97;4967854;28;20042;-84
2024/01/01 08:07:47;;;;;;;0.00;0.00;;;;;;;3.93;100.00;99164.25;4978178;28;20038;-86
2024/01/01 08:29:06;;;;;;;0.00;0.00;;;;;;;4.21;100.00;99162.38;5058866;23;20046;-82
2024/01/01 08:31:34;;;;;;;0.00;0.00;;;;;;;4.20;100.00;99155.31;4985533;28;20036;-78
2024/01/01 08:34:00;;;;;;;0.00;0.00;;;;;;;4.46;100.00;99185.38;4992835;28;21820;-79
2024/01/01 08:44:06;;;;;;;0.10;0.10;;;;;;;4.71;100.00;99182.88;4880007;29;20072;-80
2024/01/01 08:46:43;;;;;;;0.00;0.00;;;;;;;4.77;100.00;99186.44;4861800;29;20033;-82
2024/01/01 09:03:29;;;;;;;0.00;0.00;;;;;;;5.28;100.00;99221.25;4850032;29;20566;-82
2024/01/01 09:06:29;;;;;;;0.00;0.00;;;;;;;4.97;100.00;99164.13;4848384;29;20041;-82
2024/01/01 09:10:01;;;;;;;0.00;0.00;;;;;;;5.28;100.00;99202.28;4811841;29;20110;-83
2024/01/01 09:16:31;;;;;;;;;;;;;;;;;;;;;
2024/01/01 09:23:08;;;;;;;0.00;0.00;;;;;;;5.89;100.00;99209.94;4791389;29;20100;-83
2024/01/01 09:26:10;;;;;;;;;;;;;;;;;;;;;
2024/01/01 09:32:24;;;;;;;0.03;0.03;;;;;;;6.80;100.00;99226.78;4790470;29;20049;-84
2024/01/01 09:34:49;;;;;;;0.00;0.00;;;;;;;7.11;100.00;99213.19;4812487;29;20161;-75
2024/01/01 09:37:15;;;;;;;0.10;0.10;;;;;;;7.64;100.00;99231.88;4802988;29;20042;-80
2024/01/01 09:39:49;;;;;;;0.00;0.00;;;;;;;8.00;100.00;99218.19;4862090;28;20114;-80
2024/01/01 09:43:03;;;;;;;;;;;;;;;;;;;;;
2024/01/01 09:46:23;;;;;;;;;;;;;;;;;;;;;
2024/01/01 09:49:35;;;;;;;0.00;0.00;;;;;;;8.39;100.00;99211.16;4990715;28;20102;-82
2024/01/01 09:52:24;;;;;;;0.00;0.00;;;;;;;8.23;100.00;99223.25;4896244;28;20500;-82
2024/01/01 09:57:59;;;;;;;0.00;0.00;;;;;;;8.17;100.00;99236.06;4979578;28;20044;-83
2024/01/01 10:00:30;;;;;;;0.10;0.10;;;;;;;8.17;100.00;99228.69;4980793;28;20034;-81
2024/01/01 10:03:35;;;;;;;;;;;;;;;;;;;;;
2024/01/01 10:06:22;;;;;;;0.10;0.10;;;;;;;7.81;100.00;99237.03;4982469;28;20145;-82
2024/01/01 10:08:48;;;;;;;0.00;0.00;;;;;;;7.50;100.00;99226.22;4972757;28;20127;-83
2024/01/01 10:11:32;;;;;;;0.10;0.10;;;;;;;7.68;100.00;99264.78;4957170;28;20125;-84
2024/01/01 10:18:12;;;;;;;;;;;;;;;;;;;;;
2024/01/01 10:20:44;;;;;;;0.00;0.00;;;;;;;7.38;100.00;99225.66;4907033;29;20040;-77
2024/01/01 10:23:23;;;;;;;0.00;0.00;;;;;;;7.67;100.00;99282.22;4978452;28;20030;-78
2024/01/01 10:26:05;;;;;;;;;;;;;;;;;;;;;
2024/01/01 10:28:40;;;;;;;0.00;0.00;;;;;;;7.66;100.00;99291.47;4990145;28;20136;-79
2024/01/01 10:31:50;;;;;;;0.00;0.00;;;;;;;7.39;100.00;99265.38;4984751;28;20021;-80
2024/01/01 10:34:32;;;;;;;0.00;0.00;;;;;;;7.40;100.00;99272.44;4983531;28;20030;-80
2024/01/01 10:37:19;;;;;;;0.00;0.00;;;;;;;7.10;100.00;99238.75;4994275;28;20026;-80
2024/01/01 10:39:48;;;;;;;0.00;0.00;;;;;;;7.37;100.00;99293.94;4999618;28;20472;-80
2024/01/01 10:43:19;;;;;;;0.10;0.10;;;;;;;7.47;100.00;99297.47;4992891;28;20040;-79
2024/01/01 10:46:24;;;;;;;0.00;0.00;;;;;;;7.44;100.00;99295.28;4983221;28;20295;-81
2024/01/01 10:48:57;;;;;;;0.00;0.00;;;;;;;7.42;100.00;99286.59;4925655;28;20551;-80
2024/01/01 10:52:33;;;;;;;;;;;;;;;;;;;;;
2024/01/01 11:02:16;;;;;;;0.00;0.00;;;;;;;7.77;100.00;99293.09;4888309;29;20088;-81
2024/01/01 11:08:37;;;;;;;;;;;;;;;;;;;;;
2024/01/01 11:11:38;;;;;;;0.00;0.00;;;;;;;7.63;100.00;99251.22;4932241;29;20470;-79
2024/01/01 11:14:28;;;;;;;0.00;0.00;;;;;;;7.85;100.00;99284.34;5002266;28;20337;-77
2024/01/01 11:17:06;;;;;;;0.00;0.00;;;;;;;7.41;100.00;99219.69;4988636;28;20002;-80
2024/01/01 11:19:41;;;;;;;0.10;0.10;;;;;;;7.35;100.00;99218.06;5013087;28;20293;-78
2024/01/01 11:22:49;;;;;;;0.00;0.00;;;;;;;7.47;100.00;99259.38;4991279;28;20594;-78
2024/01/01 11:25:41;;;;;;;0.00;0.00;;;;;;;7.30;100.00;99248.81;4937343;28;20035;-77
2024/01/01 11:28:53;;;;;;;0.10;0.10;;;;;;;7.40;100.00;99267.00;4986449;28;20045;-79
2024/01/01 11:31:22;;;;;;;0.10;0.10;;;;;;;7.39;100.00;99250.97;4978366;28;20046;-81
2024/01/01 11:34:07;;;;;;;0.00;0.00;;;;;;;7.55;100.00;99259.91;4980950;28;20061;-79
2024/01/01 11:36:42;;;;;;;0.00;0.00;;;;;;;7.31;100.00;99217.78;4970077;28;20037;-80
2024/01/01 11:39:21;;;;;;;0.00;0.00;;;;;;;7.50;100.00;99255.31;5007137;28;20484;-81
2024/01/01 11:41:49;;;;;;;0.00;0.00;;;;;;;7.39;100.00;99219.16;4999576;28;20025;-79
2024/01/01 11:44:26;;;;;;;;;;;;;;;;;;;;;
2024/01/01 11:47:01;;;;;;;0.00;0.00;;;;;;;7.38;100.00;99186.78;5007918;28;20113;-77
2024/01/01 11:49:39;;;;;;;0.00;0.00;;;;;;;7.70;100.00;99227.25;4993521;28;20105;-79
2024/01/01 11:52:14;;;;;;;0.00;0.00;;;;;;;7.80;100.00;99210.88;4987504;28;20065;-81
2024/01/01 11:54:50;;;;;;;;;;;;;;;;;;;;;
2024/01/01 11:57:25;;;;;;;0.00;0.00;;;;;;;7.94;100.00;99213.00;4992634;28;20086;-79
2024/01/01 11:59:59;;;;;;;0.10;0.10;;;;;;;7.95;100.00;99206.50;4994080;28;20030;-80
2024/01/01 12:02:26;;;;;;;0.00;0.00;;;;;;;7.97;100.00;99216.00;4993877;28;20263;-78
2024/01/01 12:04:55;;;;;;;0.00;0.00;;;;;;;7.90;100.00;99204.59;5003580;28;20077;-80
2024/01/01 12:07:53;;;;;;;0.00;0.00;;;;;;;7.98;100.00;99206.72;4992789;28;20029;-80
2024/01/01 12:10:26;;;;;;;0.00;0.00;;;;;;;8.29;100.00;99227.56;5003203;28;20187;-80
2024/01/01 12:13:10;;;;;;;0.00;0.00;;;;;;;8.22;100.00;99192.47;4984142;28;20018;-77
2024/01/01 12:15:38;;;;;;;0.00;0.00;;;;;;;8.37;100.00;99194.31;4978842;28;20065;-78
2024/01/01 12:18:04;;;;;;;0.00;0.00;;;;;;;8.53;100.00;99204.03;4985841;28;20038;-78
2024/01/01 12:20:35;;;;;;;0.00;0.00;;;;;;;8.58;100.00;99202.38;4980483;28;20087;-79
2024/01/01 12:23:13;;;;;;;0.00;0.00;;;;;;;8.48;100.00;99170.56;4998415;28;20018;-79
2024/01/01 12:25:46;;;;;;;0.00;0.00;;;;;;;8.61;100.00;99155.47;4979627;28;20038;-78
2024/01/01 12:28:16;;;;;;;0.00;0.00;;;;;;;8.94;100.00;99166.69;4986346;28;20145;-78
2024/01/01 12:30:41;;;;;;;0.00;0.00;;;;;;;9.12;100.00;99174.13;4967220;28;20033;-74
2024/01/01 12:33:07;;;;;;;0.00;0.00;;;;;;;9.36;100.00;99179.66;4980281;28;20026;-80
2024/01/01 12:35:32;;;;;;;0.00;0.00;;;;;;;9.35;100.00;99161.63;4982676;28;20029;-78
2024/01/01 12:37:58;;;;;;;0.10;0.10;;;;;;;9.61;100.00;99164.09;4974788;28;20494;-77
2024/01/01 12:40:25;;;;;;;0.00;0.00;;;;;;;9.63;100.00;99139.25;4968204;28;20030;-79
2024/01/01 12:43:03;;;;;;;;;;;;;;;;;;;;;
2024/01/01 12:45:32;;;;;;;0.00;0.00;;;;;;;9.55;100.00;99122.41;4982333;28;20026;-78
2024/01/01 12:48:00;;;;;;;0.00;0.00;;;;;;;9.52;100.00;99106.63;4979133;28;20026;-76
2024/01/01 12:50:28;;;;;;;0.00;0.00;;;;;;;9.61;100.00;99125.88;4985275;28;20049;-78
2024/01/01 12:52:57;;;;;;;0.00;0.00;;;;;;;9.51;100.00;99096.78;4991809;28;20106;-79
2024/01/01 12:55:27;;;;;;;0.00;0.00;;;;;;;9.79;100.00;99132.50;4983755;28;20050;-78
2024/01/01 12:58:02;;;;;;;0.00;0.00;;;;;;;9.59;100.00;99087.97;4995896;28;20053;-77
2024/01/01 13:00:28;;;;;;;0.00;0.00;;;;;;;9.48;100.00;99081.00;4982875;28;20563;-77
2024/01/01 13:17:03;;;;;;;0.00;0.00;;;;;;;8.97;100.00;99057.03;4784021;29;20031;-77
2024/01/01 13:19:32;;;;;;;0.00;0.00;;;;;;;9.12;100.00;99080.59;4865433;29;20044;-78
2024/01/01 13:22:08;;;;;;;0.00;0.00;;;;;;;8.87;100.00;99052.50;4854457;29;20034;-79
2024/01/01 13:24:51;;;;;;;0.00;0.00;;;;;;;8.97;100.00;99062.50;4894060;29;20035;-78
2024/01/01 13:27:17;;;;;;;0.00;0.00;;;;;;;8.86;100.00;99050.88;4927631;29;20039;-79
2024/01/01 13:29:43;;;;;;;0.10;0.10;;;;;;;8.86;100.00;99040.78;4922767;29;20455;-77
2024/01/01 13:32:08;;;;;;;0.00;0.00;;;;;;;8.97;100.00;99046.94;4945370;28;20030;-76
2024/01/01 13:34:36;;;;;;;0.00;0.00;;;;;;;8.82;100.00;99028.84;4978671;28;20177;-78
2024/01/01 13:37:02;;;;;;;0.00;0.00;;;;;;;8.89;100.00;99033.94;4962094;28;20110;-79
2024/01/01 13:39:28;;;;;;;0.00;0.00;;;;;;;8.77;100.00;99020.69;4959327;28;20117;-78
2024/01/01 13:41:54;;;;;;;0.00;0.00;;;;;;;8.78;100.00;99016.88;4973906;28;20362;-79
2024/01/01 13:58:25;;;;;;;0.00;0.00;;;;;;;7.35;100.00;98962.44;4884190;28;20564;-78
2024/01/01 14:04:32;;;;;;;0.00;0.00;;;;;;;7.23;100.00;98961.94;4928293;29;20070;-78
2024/01/01 14:06:57;;;;;;;0.00;0.00;;;;;;;7.38;100.00;98985.53;4931982;29;20090;-75
2024/01/01 14:09:22;;;;;;;0.00;0.00;;;;;;;7.35;100.00;98973.31;4983714;28;20046;-76
2024/01/01 14:11:51;;;;;;;0.10;0.10;;;;;;;7.42;100.00;98976.53;4973668;28;20050;-75
2024/01/01 14:14:22;;;;;;;0.00;0.00;;;;;;;7.34;100.00;98947.19;4987820;28;20030;-74
2024/01/01 14:17:05;;;;;;;0.00;0.00;;;;;;;7.36;100.00;98934.16;4974647;28;20052;-74
2024/01/01 14:19:33;;;;;;;0.00;0.00;;;;;;;7.49;100.00;98943.56;4963032;28;20125;-76
2024/01/01 14:22:02;;;;;;;0.00;0.00;;;;;;;7.56;100.00;98954.16;4976766;28;20026;-75
2024/01/01 14:24:48;;;;;;;0.00;0.00;;;;;;;7.39;100.00;98916.44;4971185;28;20071;-75
2024/01/01 14:28:15;;;;;;;;;;;;;;;;;;;;;
2024/01/01 14:31:56;;;;;;;;;;;;;;;;;;;;;
2024/01/01 14:34:48;;;;;;;;;;;;;;;;;;;;;
2024/01/01 14:37:14;;;;;;;0.00;0.00;;;;;;;7.43;100.00;98907.47;4995282;28;20025;-74
2024/01/01 14:40:02;;;;;;;0.00;0.00;;;;;;;7.71;100.00;98948.63;4970782;28;20480;-75
2024/01/01 14:43:31;;;;;;;0.00;0.00;;;;;;;7.71;100.00;98942.34;4965544;28;20032;-75
2024/01/01 14:46:25;;;;;;;;;;;;;;;;;;;;;
2024/01/01 14:49:51;;;;;;;;;;;;;;;;;;;;;
2024/01/01 14:52:37;;;;;;;;;;;;;;;;;;;;;
2024/01/01 14:55:45;;;;;;;0.00;0.00;;;;;;;7.49;100.00;98873.69;4931457;29;20107;-76
2024/01/01 14:59:08;;;;;;;;;;;;;;;;;;;;;
2024/01/01 15:01:45;;;;;;;0.00;0.00;;;;;;;7.54;100.00;98880.19;4923293;29;20150;-78
2024/01/01 15:05:01;;;;;;;;;;;;;;;;;;;;;
2024/01/01 15:08:16;;;;;;;0.00;0.00;;;;;;;7.42;100.00;98867.75;5003621;28;20121;-79
2024/01/01 15:10:53;;;;;;;;;;;;;;;;;;;;;
2024/01/01 15:14:03;;;;;;;0.00;0.00;;;;;;;7.54;100.00;98874.75;4995787;28;20620;-77
2024/01/01 15:16:30;;;;;;;0.00;0.00;;;;;;;7.41;100.00;98857.94;4982375;28;20027;-76
2024/01/01 15:19:09;;;;;;;;;;;;;;;;;;;;;
2024/01/01 15:21:44;;;;;;;0.00;0.00;;;;;;;7.39;100.00;98830.25;4988287;28;20036;-76
2024/01/01 15:27:04;;;;;;;0.00;0.00;;;;;;;7.49;100.00;98829.31;4979750;28;20129;-78
2024/01/01 15:33:23;;;;;;;;;;;;;;;;;;;;;
2024/01/01 15:37:00;;;;;;;;;;;;;;;;;;;;;
2024/01/01 15:40:01;;;;;;;;;;;;;;;;;;;;;
2024/01/01 15:43:03;;;;;;;;;;;;;;;;;;;;;
2024/01/01 15:49:13;;;;;;;0.00;0.00;;;;;;;7.31;100.00;98712.00;4993161;28;20463;-79
2024/01/01 15:52:00;;;;;;;;;;;;;;;;;;;;;
2024/01/01 15:54:36;;;;;;;;;;;;;;;;;;;;;
2024/01/01 16:01:29;;;;;;;;;;;;;;;;;;;;;